Time;durP1;ratioP1;P1;durP2;ratioP2;P2;SDS_P1;SDS_P2;PMS_P1;PMS_P2;Temp;Humidity;BMP_temperature;BMP_pressure;BME280_temperature;BME280_humidity;BME280_pressure;Samples;Min_cycle;Max_cycle;Signal;HPM_P1;HPM_P2
2022/12/28 00:03:06;;;;;;;14.95;7.30;;;;;;;;;;8344646;28;20053;-94
2022/12/28 00:07:10;;;;;;;17.67;7.60;;;;;;;;;;8351007;28;20045;-94
2022/12/28 00:11:21;;;;;;;15.48;8.00;;;;;;;;;;8337026;28;20060;-92
2022/12/28 00:15:33;;;;;;;20.45;8.23;;;;;;;;;;8319742;28;20046;-94
2022/12/28 00:19:56;;;;;;;14.27;7.47;;;;;;;;;;8338700;28;20053;-93
2022/12/28 00:24:20;;;;;;;14.18;7.05;;;;;;;;;;8254942;28;20114;-95
2022/12/28 00:28:26;;;;;;;22.65;7.43;;;;;;;;;;8252931;28;20059;-94
2022/12/28 00:32:29;;;;;;;15.50;7.88;;;;;;;;;;8271537;28;20054;-93
2022/12/28 00:36:38;;;;;;;10.70;6.53;;;;;;;;;;8242177;28;20054;-95
2022/12/28 00:40:44;;;;;;;19.60;8.30;;;;;;;;;;8245587;28;20047;-94
2022/12/28 00:44:59;;;;;;;19.90;7.32;;;;;;;;;;8243265;28;20059;-93
2022/12/28 00:49:02;;;;;;;14.25;7.50;;;;;;;;;;8265796;28;20129;-94
2022/12/28 00:53:07;;;;;;;18.33;9.40;;;;;;;;;;8257948;28;20058;-95
2022/12/28 00:57:16;;;;;;;26.27;12.18;;;;;;;;;;8236539;28;20050;-94
2022/12/28 01:01:24;;;;;;;18.13;8.85;;;;;;;;;;8276563;28;20406;-94
2022/12/28 01:05:36;;;;;;;18.08;7.60;;;;;;;;;;8279906;28;20050;-94
2022/12/28 01:09:59;;;;;;;16.83;8.45;;;;;;;;;;8350194;28;20045;-95
2022/12/28 01:14:02;;;;;;;15.80;7.78;;;;;;;;;;8326186;28;20069;-95
2022/12/28 01:18:23;;;;;;;23.60;8.50;;;;;;;;;;8332780;22;20048;-96
2022/12/28 01:22:29;;;;;;;14.05;6.88;;;;;;;;;;8368787;28;20049;-93
2022/12/28 01:26:34;;;;;;;19.08;8.60;;;;;;;;;;8365691;28;20182;-94
2022/12/28 01:30:53;;;;;;;16.08;8.75;;;;;;;;;;8372762;28;20061;-93
2022/12/28 01:35:05;;;;;;;16.77;8.05;;;;;;;;;;8352787;28;20056;-95
2022/12/28 01:39:15;;;;;;;17.92;8.60;;;;;;;;;;8366162;28;20095;-94
2022/12/28 01:48:11;;;;;;;;;;;;;;;;;;;;;
2022/12/28 01:52:30;;;;;;;17.90;9.32;;;;;;;;;;8367425;28;20047;-95
2022/12/28 01:56:33;;;;;;;21.08;8.65;;;;;;;;;;8369687;28;20052;-94
2022/12/28 02:00:44;;;;;;;22.30;9.68;;;;;;;;;;8370022;28;20056;-92
2022/12/28 02:04:52;;;;;;;21.92;9.18;;;;;;;;;;8385317;28;20055;-92
2022/12/28 02:09:10;;;;;;;17.83;8.73;;;;;;;;;;8376643;28;20039;-93
2022/12/28 02:13:14;;;;;;;18.55;9.20;;;;;;;;;;8374295;28;20037;-94
2022/12/28 02:17:21;;;;;;;17.55;8.40;;;;;;;;;;8383399;28;20069;-94
2022/12/28 02:21:33;;;;;;;21.20;9.27;;;;;;;;;;8370895;28;20087;-94
2022/12/28 02:26:28;;;;;;;18.15;9.25;;;;;;;;;;8371556;28;20041;-94
2022/12/28 02:30:58;;;;;;;17.23;7.82;;;;;;;;;;8368326;28;20501;-93
2022/12/28 02:35:07;;;;;;;18.58;8.73;;;;;;;;;;8366223;28;20480;-93
2022/12/28 02:39:23;;;;;;;18.95;9.02;;;;;;;;;;8371938;28;20079;-94
2022/12/28 02:43:30;;;;;;;24.98;9.18;;;;;;;;;;8382336;28;20068;-94
2022/12/28 02:52:22;;;;;;;17.92;8.40;;;;;;;;;;8369292;28;20045;-94
2022/12/28 02:56:37;;;;;;;22.88;9.10;;;;;;;;;;8352468;28;20057;-93
2022/12/28 03:00:56;;;;;;;18.30;9.00;;;;;;;;;;8385257;28;20511;-94
2022/12/28 03:05:12;;;;;;;15.02;8.55;;;;;;;;;;8368356;28;20049;-94
2022/12/28 03:09:25;;;;;;;14.93;7.47;;;;;;;;;;8358641;28;20052;-94
2022/12/28 03:13:45;;;;;;;20.65;8.75;;;;;;;;;;8365424;28;20048;-93
2022/12/28 03:31:20;;;;;;;22.00;8.82;;;;;;;;;;8261273;28;20059;-92
2022/12/28 03:35:41;;;;;;;16.88;8.50;;;;;;;;;;8248101;28;20054;-94
2022/12/28 03:40:03;;;;;;;20.50;9.38;;;;;;;;;;8261343;28;20054;-93
2022/12/28 03:44:24;;;;;;;20.27;8.88;;;;;;;;;;8298667;28;20136;-93
2022/12/28 03:48:54;;;;;;;23.02;9.80;;;;;;;;;;8299354;28;20050;-93
2022/12/28 03:53:05;;;;;;;19.20;9.32;;;;;;;;;;8308138;28;20072;-94
2022/12/28 03:57:31;;;;;;;23.60;10.13;;;;;;;;;;8370939;28;20052;-93
2022/12/28 04:02:03;;;;;;;23.45;10.52;;;;;;;;;;8370703;28;20056;-93
2022/12/28 04:06:29;;;;;;;28.95;11.60;;;;;;;;;;8385168;28;20112;-93
2022/12/28 04:10:42;;;;;;;23.75;9.73;;;;;;;;;;8364996;28;20053;-94
2022/12/28 04:15:03;;;;;;;34.13;11.40;;;;;;;;;;8386931;28;20179;-93
2022/12/28 04:19:34;;;;;;;24.15;9.70;;;;;;;;;;8372006;28;20053;-92
2022/12/28 04:28:34;;;;;;;22.35;9.68;;;;;;;;;;8375199;28;20482;-92
2022/12/28 04:33:05;;;;;;;18.65;9.20;;;;;;;;;;8332675;28;20071;-91
2022/12/28 04:37:27;;;;;;;26.67;9.32;;;;;;;;;;8362157;28;20041;-93
2022/12/28 04:41:35;;;;;;;20.30;9.68;;;;;;;;;;8384526;28;20041;-92
2022/12/28 04:46:06;;;;;;;17.13;7.72;;;;;;;;;;8365101;28;20067;-93
2022/12/28 04:50:40;;;;;;;23.88;10.60;;;;;;;;;;8389804;28;20050;-90
2022/12/28 04:55:00;;;;;;;21.65;9.80;;;;;;;;;;8386225;28;20076;-91
2022/12/28 05:13:58;;;;;;;21.27;9.90;;;;;;;;;;8388277;28;20041;-92
2022/12/28 05:37:28;;;;;;;20.63;9.52;;;;;;;;;;8146169;29;20103;-92
2022/12/28 06:12:50;;;;;;;37.13;14.07;;;;;;;;;;7897506;29;20035;-93
2022/12/28 06:27:12;;;;;;;24.88;11.00;;;;;;;;;;8151662;29;20048;-92
2022/12/28 06:40:10;;;;;;;25.83;10.90;;;;;;;;;;8306467;28;20093;-93
2022/12/28 06:44:19;;;;;;;30.50;12.80;;;;;;;;;;8285290;28;20065;-94
2022/12/28 06:52:58;;;;;;;28.83;11.98;;;;;;;;;;8292040;28;20114;-91
2022/12/28 06:57:06;;;;;;;27.25;11.45;;;;;;;;;;8323230;28;20054;-92
2022/12/28 07:01:18;;;;;;;24.35;10.55;;;;;;;;;;8311923;28;20053;-92
2022/12/28 07:05:52;;;;;;;18.13;9.10;;;;;;;;;;8299554;28;20554;-92
2022/12/28 07:10:24;;;;;;;24.88;11.13;;;;;;;;;;8304395;28;20080;-95
2022/12/28 07:14:36;;;;;;;;;;;;;;;;;;8305421;28;20043;-93
2022/12/28 07:18:42;;;;;;;21.27;6.00;;;;;;;;;;8315389;28;20392;-93
2022/12/28 07:32:38;;;;;;;19.33;10.18;;;;;;;;;;8391993;28;20053;-92
2022/12/28 07:54:34;;;;;;;21.73;10.88;;;;;;;;;;8258516;28;20061;-93
2022/12/28 07:59:14;;;;;;;22.13;8.23;;;;;;;;;;8263615;28;20075;-92
2022/12/28 08:04:41;;;;;;;22.30;9.43;;;;;;;;;;8234057;28;20047;-92
2022/12/28 08:09:28;;;;;;;22.38;9.02;;;;;;;;;;8159728;29;20055;-92
2022/12/28 08:39:41;;;;;;;17.33;7.30;;;;;;;;;;8349211;28;20060;-93
2022/12/28 12:00:51;;;;;;;7.72;4.28;;;;;;;;;;8133485;29;20052;-95
2022/12/28 12:05:43;;;;;;;14.55;6.20;;;;;;;;;;8142027;29;20105;-94
2022/12/28 12:10:10;;;;;;;11.85;4.93;;;;;;;;;;8134604;29;20048;-95
2022/12/28 12:32:12;;;;;;;8.85;2.92;;;;;;;;;;8252382;23;20056;-95
2022/12/28 12:37:28;;;;;;;10.80;4.40;;;;;;;;;;8191325;29;20067;-96
2022/12/28 13:07:22;;;;;;;9.23;4.60;;;;;;;;;;8149140;29;20107;-95
2022/12/28 13:11:47;;;;;;;16.42;6.95;;;;;;;;;;8157410;29;20085;-95
2022/12/28 13:16:17;;;;;;;12.38;6.15;;;;;;;;;;8147925;29;20467;-95
2022/12/28 13:30:24;;;;;;;15.73;7.38;;;;;;;;;;8220286;29;20054;-94
2022/12/28 13:35:19;;;;;;;21.92;8.77;;;;;;;;;;8189660;23;20052;-95
2022/12/28 13:39:36;;;;;;;13.65;6.40;;;;;;;;;;8170735;29;20035;-94
2022/12/28 13:44:25;;;;;;;15.63;7.80;;;;;;;;;;8192361;29;20115;-95
2022/12/28 13:48:59;;;;;;;17.77;7.10;;;;;;;;;;8178119;29;20087;-94
2022/12/28 13:53:09;;;;;;;16.98;7.82;;;;;;;;;;8156708;29;20069;-95
2022/12/28 13:57:15;;;;;;;12.57;5.57;;;;;;;;;;8173205;29;20058;-95
2022/12/28 14:05:48;;;;;;;23.67;9.02;;;;;;;;;;8188610;29;20552;-94
2022/12/28 14:09:54;;;;;;;13.60;6.40;;;;;;;;;;8185448;29;20051;-94
2022/12/28 14:14:03;;;;;;;11.55;5.80;;;;;;;;;;8145598;29;20067;-94
2022/12/28 14:18:21;;;;;;;;;;;;;;;;;;8175791;29;20048;-94
2022/12/28 14:22:36;;;;;;;19.75;10.60;;;;;;;;;;8169841;29;19927;-93
2022/12/28 14:26:45;;;;;;;18.50;7.90;;;;;;;;;;8169843;29;20051;-93
2022/12/28 14:30:56;;;;;;;19.67;8.68;;;;;;;;;;8186537;29;20520;-93
2022/12/28 14:35:03;;;;;;;24.20;12.63;;;;;;;;;;8216815;28;20060;-95
2022/12/28 14:39:26;;;;;;;14.68;6.82;;;;;;;;;;8196623;28;20059;-92
2022/12/28 14:43:36;;;;;;;20.48;9.15;;;;;;;;;;8198066;29;20059;-92
2022/12/28 14:47:55;;;;;;;7.43;3.65;;;;;;;;;;8211107;29;20508;-93
2022/12/28 14:52:41;;;;;;;16.95;7.88;;;;;;;;;;8188699;29;20509;-94
2022/12/28 14:56:52;;;;;;;35.03;16.67;;;;;;;;;;8178122;29;20063;-95
2022/12/28 15:01:01;;;;;;;18.92;10.02;;;;;;;;;;8164798;29;20056;-93
2022/12/28 15:05:41;;;;;;;17.80;9.27;;;;;;;;;;8166394;29;20036;-93
2022/12/28 15:09:46;;;;;;;27.55;11.52;;;;;;;;;;8184458;29;20076;-92
2022/12/28 15:13:50;;;;;;;21.80;10.20;;;;;;;;;;8190623;29;20055;-93
2022/12/28 15:17:57;;;;;;;28.65;10.50;;;;;;;;;;8181989;29;20071;-95
2022/12/28 15:22:03;;;;;;;25.98;10.77;;;;;;;;;;8177271;29;20399;-93
2022/12/28 15:26:10;;;;;;;17.15;8.38;;;;;;;;;;8166146;29;20111;-93
2022/12/28 15:30:17;;;;;;;20.23;9.07;;;;;;;;;;8185033;29;20071;-92
2022/12/28 15:34:25;;;;;;;16.27;7.88;;;;;;;;;;8175143;29;20071;-92
2022/12/28 15:38:29;;;;;;;17.75;10.25;;;;;;;;;;8166583;23;20103;-92
2022/12/28 15:52:03;;;;;;;18.52;8.27;;;;;;;;;;8176584;23;20064;-91
2022/12/28 15:56:25;;;;;;;25.50;10.00;;;;;;;;;;8162845;29;20043;-94
2022/12/28 16:00:33;;;;;;;16.92;7.80;;;;;;;;;;8148053;29;20086;-94
2022/12/28 16:04:38;;;;;;;20.58;9.07;;;;;;;;;;8149534;29;20055;-93
2022/12/28 16:08:44;;;;;;;21.02;9.52;;;;;;;;;;8147901;29;20052;-93
2022/12/28 16:12:47;;;;;;;21.70;10.38;;;;;;;;;;8129958;29;20059;-94
2022/12/28 16:16:57;;;;;;;21.17;10.02;;;;;;;;;;8126398;29;20048;-94
2022/12/28 16:21:04;;;;;;;54.65;22.90;;;;;;;;;;8139705;29;20056;-94
2022/12/28 16:25:14;;;;;;;22.77;10.43;;;;;;;;;;8152536;29;20047;-94
2022/12/28 16:29:25;;;;;;;19.50;9.48;;;;;;;;;;8147872;29;20061;-94
2022/12/28 16:33:30;;;;;;;16.27;8.40;;;;;;;;;;8139748;29;20139;-93
2022/12/28 16:38:04;;;;;;;32.55;21.15;;;;;;;;;;8125842;29;20059;-93
2022/12/28 16:42:35;;;;;;;;;;;;;;;;;;8133050;29;20065;-94
2022/12/28 16:47:10;;;;;;;28.70;13.48;;;;;;;;;;8109449;29;19924;-94
2022/12/28 16:51:16;;;;;;;20.60;9.90;;;;;;;;;;8132886;29;20056;-93
2022/12/28 16:55:26;;;;;;;48.95;17.67;;;;;;;;;;8134829;29;20083;-93
2022/12/28 16:59:36;;;;;;;62.83;20.15;;;;;;;;;;8127559;29;20044;-93
2022/12/28 17:03:45;;;;;;;45.65;17.08;;;;;;;;;;8130589;29;20048;-93
2022/12/28 17:07:50;;;;;;;44.38;20.23;;;;;;;;;;8129248;29;20140;-94
2022/12/28 17:12:00;;;;;;;34.88;20.38;;;;;;;;;;8128632;29;20415;-91
2022/12/28 17:16:11;;;;;;;34.58;18.25;;;;;;;;;;8131820;29;20104;-91
2022/12/28 17:24:55;;;;;;;19.05;8.32;;;;;;;;;;8144685;29;20048;-93
2022/12/28 17:33:23;;;;;;;24.33;11.18;;;;;;;;;;8345864;23;20048;-94
2022/12/28 17:37:54;;;;;;;17.33;9.63;;;;;;;;;;8186949;29;20111;-94
2022/12/28 17:42:06;;;;;;;86.10;37.30;;;;;;;;;;8133645;29;20064;-94
2022/12/28 17:46:10;;;;;;;;;;;;;;;;;;8173466;29;20062;-94
2022/12/28 17:54:47;;;;;;;15.93;7.25;;;;;;;;;;8160776;29;20442;-95
2022/12/28 17:58:58;;;;;;;16.20;7.43;;;;;;;;;;8167479;29;20058;-94
2022/12/28 18:03:04;;;;;;;22.83;12.02;;;;;;;;;;8148527;29;20059;-93
2022/12/28 18:07:18;;;;;;;19.35;10.13;;;;;;;;;;8165706;29;20063;-92
2022/12/28 18:11:46;;;;;;;18.50;7.78;;;;;;;;;;8178912;29;20058;-95
2022/12/28 18:16:04;;;;;;;19.08;8.20;;;;;;;;;;8196289;23;20082;-95
2022/12/28 18:20:12;;;;;;;;;;;;;;;;;;8200635;29;20062;-94
2022/12/28 18:24:24;;;;;;;14.95;6.80;;;;;;;;;;8162266;29;19923;-95
2022/12/28 18:28:32;;;;;;;18.60;8.52;;;;;;;;;;8165042;29;20064;-95
2022/12/28 18:32:37;;;;;;;12.52;6.70;;;;;;;;;;8158679;23;20122;-93
2022/12/28 18:36:44;;;;;;;17.38;8.32;;;;;;;;;;8166588;29;20050;-94
2022/12/28 18:40:59;;;;;;;16.25;8.73;;;;;;;;;;8131433;29;20056;-94
2022/12/28 18:45:15;;;;;;;25.85;13.05;;;;;;;;;;8147162;29;20060;-94
2022/12/28 18:49:21;;;;;;;26.48;13.05;;;;;;;;;;8133775;29;20056;-92
2022/12/28 18:53:35;;;;;;;28.67;13.23;;;;;;;;;;8141067;29;20523;-94
2022/12/28 18:57:40;;;;;;;11.73;5.65;;;;;;;;;;8122790;29;20504;-93
2022/12/28 19:01:50;;;;;;;16.42;8.32;;;;;;;;;;8162446;29;20146;-93
2022/12/28 19:05:58;;;;;;;15.88;7.78;;;;;;;;;;8138939;29;20449;-94
2022/12/28 19:10:14;;;;;;;18.30;9.70;;;;;;;;;;8130433;29;20064;-95
2022/12/28 19:14:22;;;;;;;17.90;8.45;;;;;;;;;;8162476;29;20066;-94
2022/12/28 19:18:29;;;;;;;18.42;10.60;;;;;;;;;;8116539;29;20093;-94
2022/12/28 19:22:38;;;;;;;15.45;8.38;;;;;;;;;;8135133;29;20468;-94
2022/12/28 19:26:43;;;;;;;21.55;10.63;;;;;;;;;;8157251;23;20055;-93
2022/12/28 19:30:49;;;;;;;27.17;10.52;;;;;;;;;;8157469;29;20522;-95
2022/12/28 19:34:57;;;;;;;22.90;9.10;;;;;;;;;;8171371;29;20146;-93
2022/12/28 19:39:01;;;;;;;17.83;8.57;;;;;;;;;;8183584;29;20058;-95
2022/12/28 19:43:07;;;;;;;20.52;9.48;;;;;;;;;;8169227;29;20107;-94
2022/12/28 19:47:13;;;;;;;17.23;7.60;;;;;;;;;;8198955;29;20059;-94
2022/12/28 19:51:18;;;;;;;23.40;9.95;;;;;;;;;;8192497;29;20070;-95
2022/12/28 19:55:33;;;;;;;17.10;8.98;;;;;;;;;;8166807;29;20098;-95
2022/12/28 19:59:38;;;;;;;24.08;10.50;;;;;;;;;;8182402;29;20063;-95
2022/12/28 20:03:44;;;;;;;17.98;7.55;;;;;;;;;;8182826;29;20056;-93
2022/12/28 20:07:51;;;;;;;23.38;9.40;;;;;;;;;;8166728;29;20408;-95
2022/12/28 20:11:55;;;;;;;21.65;9.20;;;;;;;;;;8165870;29;20059;-93
2022/12/28 20:15:59;;;;;;;16.58;8.57;;;;;;;;;;8182671;29;20051;-94
2022/12/28 20:20:11;;;;;;;28.25;12.00;;;;;;;;;;8179376;28;20551;-94
2022/12/28 20:24:20;;;;;;;22.23;10.30;;;;;;;;;;8176882;29;20079;-95
2022/12/28 20:28:25;;;;;;;19.73;8.35;;;;;;;;;;8177649;29;20064;-95
2022/12/28 20:32:33;;;;;;;27.75;11.25;;;;;;;;;;8173723;29;20515;-94
2022/12/28 20:36:41;;;;;;;25.05;12.32;;;;;;;;;;8178690;29;20451;-94
2022/12/28 20:40:46;;;;;;;18.30;9.10;;;;;;;;;;8180330;29;20070;-94
2022/12/28 20:44:50;;;;;;;17.83;8.00;;;;;;;;;;8185559;29;20086;-94
2022/12/28 20:49:18;;;;;;;20.08;8.85;;;;;;;;;;8180485;29;20058;-93
2022/12/28 20:53:23;;;;;;;19.60;8.98;;;;;;;;;;8181683;28;20059;-94
2022/12/28 20:57:28;;;;;;;27.25;12.02;;;;;;;;;;8147794;29;20074;-94
2022/12/28 21:01:31;;;;;;;24.13;10.68;;;;;;;;;;8183050;29;20062;-94
2022/12/28 21:05:35;;;;;;;24.10;10.48;;;;;;;;;;8174954;29;20062;-94
2022/12/28 21:09:54;;;;;;;49.35;24.08;;;;;;;;;;8178549;29;20048;-94
2022/12/28 21:14:02;;;;;;;34.15;16.60;;;;;;;;;;8174948;29;20115;-95
2022/12/28 21:18:07;;;;;;;25.63;10.40;;;;;;;;;;8168432;29;20055;-95
2022/12/28 21:22:14;;;;;;;22.48;11.38;;;;;;;;;;8182129;29;20078;-94
2022/12/28 21:26:21;;;;;;;22.25;12.88;;;;;;;;;;8179674;29;20051;-95
2022/12/28 21:30:31;;;;;;;19.85;11.13;;;;;;;;;;8177248;29;20063;-94
2022/12/28 21:34:39;;;;;;;16.60;8.27;;;;;;;;;;8178844;29;20130;-94
2022/12/28 21:38:59;;;;;;;18.67;8.88;;;;;;;;;;8164571;29;20064;-96
2022/12/28 21:43:04;;;;;;;23.08;10.75;;;;;;;;;;8164996;29;20703;-94
2022/12/28 21:47:09;;;;;;;23.02;12.43;;;;;;;;;;8183623;29;20056;-95
2022/12/28 21:55:46;;;;;;;21.88;10.07;;;;;;;;;;8176232;29;20059;-94
2022/12/28 21:59:51;;;;;;;23.67;12.68;;;;;;;;;;8192170;29;20059;-94
2022/12/28 22:12:40;;;;;;;20.13;9.43;;;;;;;;;;8161247;29;20069;-93
2022/12/28 22:16:43;;;;;;;24.83;10.68;;;;;;;;;;8165917;29;20059;-94
2022/12/28 22:20:48;;;;;;;27.65;11.48;;;;;;;;;;8202128;29;20059;-93
2022/12/28 22:24:52;;;;;;;19.55;9.38;;;;;;;;;;8178056;29;20522;-92
2022/12/28 22:28:56;;;;;;;18.80;8.38;;;;;;;;;;8177486;29;20059;-93
2022/12/28 22:33:01;;;;;;;17.88;8.05;;;;;;;;;;8165434;29;20056;-91
2022/12/28 22:37:06;;;;;;;17.92;6.72;;;;;;;;;;8176870;29;20535;-93
2022/12/28 22:41:11;;;;;;;17.00;7.57;;;;;;;;;;8176013;29;20066;-93
2022/12/28 22:45:16;;;;;;;21.70;9.45;;;;;;;;;;8176778;29;20066;-93
2022/12/28 22:49:20;;;;;;;13.52;7.45;;;;;;;;;;8176763;29;20088;-94
2022/12/28 22:53:24;;;;;;;15.65;7.53;;;;;;;;;;8175407;29;20504;-93
2022/12/28 22:57:28;;;;;;;21.00;9.05;;;;;;;;;;8176802;29;20075;-92
2022/12/28 23:01:34;;;;;;;15.38;6.95;;;;;;;;;;8189389;29;20139;-93
2022/12/28 23:05:37;;;;;;;18.15;8.50;;;;;;;;;;8166887;29;20051;-93
2022/12/28 23:09:42;;;;;;;16.00;7.78;;;;;;;;;;8185320;29;20055;-92
2022/12/28 23:13:47;;;;;;;19.98;7.85;;;;;;;;;;8181215;29;20078;-93
2022/12/28 23:27:18;;;;;;;17.55;7.60;;;;;;;;;;8202060;29;20052;-93
2022/12/28 23:31:03;;;;;;;22.45;9.00;;;;;;;;;;8173918;29;20451;-94
2022/12/28 23:35:07;;;;;;;19.85;9.15;;;;;;;;;;8153895;29;20056;-92
2022/12/28 23:39:11;;;;;;;20.00;8.32;;;;;;;;;;8157781;29;20056;-93
2022/12/28 23:43:37;;;;;;;16.98;7.40;;;;;;;;;;8157840;29;20055;-95
2022/12/28 23:47:41;;;;;;;20.50;7.75;;;;;;;;;;8156633;29;20052;-93
2022/12/28 23:51:45;;;;;;;15.55;7.93;;;;;;;;;;8159525;29;20055;-92
2022/12/28 23:55:48;;;;;;;17.35;7.30;;;;;;;;;;8174412;29;20108;-93
2022/12/28 23:59:53;;;;;;;16.63;7.43;;;;;;;;;;8156368;29;20501;-93
